createdAt,value
2023-12-03T00:00:00.647Z,10.80
2023-12-03T00:02:53.610Z,12.80
2023-12-03T00:05:46.294Z,9.60
2023-12-03T00:08:47.848Z,11.60
2023-12-03T00:11:43.659Z,11.90
2023-12-03T00:14:36.425Z,9.30
2023-12-03T00:17:29.065Z,10.70
2023-12-03T00:20:21.722Z,11.70
2023-12-03T00:23:14.281Z,13.60
2023-12-03T00:26:07.584Z,12.70
2023-12-03T00:29:00.031Z,12.80
2023-12-03T00:31:53.025Z,11.50
2023-12-03T00:34:45.986Z,13.10
2023-12-03T00:37:38.696Z,12.30
2023-12-03T00:40:31.168Z,13.70
2023-12-03T00:43:23.704Z,12.50
2023-12-03T00:46:16.219Z,13.30
2023-12-03T00:49:08.800Z,13.80
2023-12-03T00:52:01.392Z,11.30
2023-12-03T00:54:53.896Z,11.20
2023-12-03T00:57:47.150Z,14.40
2023-12-03T01:00:40.938Z,12.10
2023-12-03T01:03:33.425Z,13.40
2023-12-03T01:06:26.390Z,10.00
2023-12-03T01:09:20.102Z,14.30
2023-12-03T01:12:12.819Z,13.60
2023-12-03T01:15:06.165Z,12.90
2023-12-03T01:17:58.730Z,11.10
2023-12-03T01:20:53.321Z,12.50
2023-12-03T01:23:46.125Z,11.90
2023-12-03T01:26:38.729Z,10.40
2023-12-03T01:29:31.195Z,11.50
2023-12-03T01:32:23.844Z,12.10
2023-12-03T01:35:16.670Z,11.10
2023-12-03T01:38:09.356Z,13.50
2023-12-03T01:41:02.078Z,12.40
2023-12-03T01:43:55.046Z,13.10
2023-12-03T01:46:47.928Z,11.80
2023-12-03T01:49:41.518Z,10.80
2023-12-03T01:52:33.997Z,10.00
2023-12-03T01:55:26.546Z,12.10
2023-12-03T01:58:19.136Z,12.60
2023-12-03T02:01:12.154Z,13.70
2023-12-03T02:04:04.875Z,13.40
2023-12-03T02:06:57.516Z,13.50
2023-12-03T02:09:50.068Z,14.30
2023-12-03T02:12:42.733Z,17.90
2023-12-03T02:15:35.294Z,11.90
2023-12-03T02:18:29.397Z,17.20
2023-12-03T02:21:22.080Z,11.60
2023-12-03T02:24:14.700Z,17.30
2023-12-03T02:27:07.510Z,17.80
2023-12-03T02:29:59.993Z,19.70
2023-12-03T02:32:54.620Z,23.30
2023-12-03T02:35:47.145Z,13.10
2023-12-03T02:38:39.641Z,18.00
2023-12-03T02:41:32.178Z,22.50
2023-12-03T02:44:25.660Z,28.30
2023-12-03T02:47:18.863Z,28.00
2023-12-03T02:50:12.597Z,29.20
2023-12-03T02:53:05.026Z,35.10
2023-12-03T02:55:57.485Z,34.00
2023-12-03T02:58:50.177Z,27.00
2023-12-03T03:01:43.252Z,27.10
2023-12-03T03:04:35.813Z,29.30
2023-12-03T03:07:28.526Z,33.30
2023-12-03T03:10:20.929Z,30.60
2023-12-03T03:13:13.509Z,35.50
2023-12-03T03:16:07.379Z,33.20
2023-12-03T03:18:59.842Z,31.00
2023-12-03T03:21:52.531Z,36.10
2023-12-03T03:24:45.295Z,32.20
2023-12-03T03:27:37.767Z,33.80
2023-12-03T03:30:30.311Z,28.30
2023-12-03T03:33:22.959Z,23.30
2023-12-03T03:36:17.073Z,30.50
2023-12-03T03:39:11.787Z,31.10
2023-12-03T03:42:05.251Z,24.20
2023-12-03T03:44:57.862Z,28.20
2023-12-03T03:47:50.435Z,23.40
2023-12-03T03:50:46.141Z,23.90
2023-12-03T03:53:38.591Z,31.00
2023-12-03T03:56:31.062Z,29.90
2023-12-03T03:59:23.613Z,17.40
2023-12-03T04:02:16.576Z,22.30
2023-12-03T04:05:11.314Z,18.30
2023-12-03T04:08:03.794Z,16.20
2023-12-03T04:10:57.261Z,14.00
2023-12-03T04:13:49.761Z,16.40
2023-12-03T04:16:42.295Z,19.90
2023-12-03T04:19:34.861Z,23.90
2023-12-03T04:22:27.622Z,32.50
2023-12-03T04:25:20.154Z,29.20
2023-12-03T04:28:12.612Z,25.40
2023-12-03T04:31:06.681Z,20.60
2023-12-03T04:33:59.260Z,23.50
2023-12-03T04:36:51.863Z,23.80
2023-12-03T04:39:46.922Z,25.60
2023-12-03T04:42:39.488Z,26.00
2023-12-03T04:45:32.114Z,25.90
2023-12-03T04:48:24.738Z,30.20
2023-12-03T04:51:19.389Z,28.40
2023-12-03T04:54:11.867Z,32.80
2023-12-03T04:57:05.096Z,30.20
2023-12-03T04:59:57.653Z,29.20
2023-12-03T05:02:51.274Z,28.10
2023-12-03T05:05:44.193Z,26.10
2023-12-03T05:08:37.616Z,32.20
2023-12-03T05:11:30.028Z,29.60
2023-12-03T05:14:22.879Z,25.80
2023-12-03T05:17:15.396Z,25.50
2023-12-03T05:20:10.752Z,23.80
2023-12-03T05:23:03.421Z,24.10
2023-12-03T05:25:56.027Z,26.10
2023-12-03T05:28:48.485Z,24.60
2023-12-03T05:31:46.316Z,26.90
2023-12-03T05:34:38.913Z,24.50
2023-12-03T05:37:31.532Z,28.30
2023-12-03T05:40:24.036Z,29.10
2023-12-03T05:43:16.975Z,27.80
2023-12-03T05:46:10.206Z,26.70
2023-12-03T05:49:02.750Z,28.50
2023-12-03T05:51:56.028Z,29.20
2023-12-03T05:54:48.977Z,30.50
2023-12-03T05:57:41.532Z,29.40
2023-12-03T06:00:34.771Z,25.50
2023-12-03T06:03:29.328Z,34.20
2023-12-03T06:06:22.521Z,22.00
2023-12-03T06:09:15.228Z,28.10
2023-12-03T06:12:09.589Z,25.30
2023-12-03T06:15:02.094Z,30.70
2023-12-03T06:17:54.724Z,23.60
2023-12-03T06:20:47.254Z,21.60
2023-12-03T06:23:39.979Z,17.80
2023-12-03T06:26:32.488Z,25.70
2023-12-03T06:29:25.305Z,24.10
2023-12-03T06:32:17.866Z,25.10
2023-12-03T06:35:15.323Z,22.50
2023-12-03T06:38:07.789Z,21.60
2023-12-03T06:41:00.300Z,27.10
2023-12-03T06:43:52.773Z,21.30
2023-12-03T06:46:45.309Z,23.50
2023-12-03T06:49:38.111Z,23.40
2023-12-03T06:52:30.943Z,26.70
2023-12-03T06:55:23.693Z,21.50
2023-12-03T06:58:16.123Z,25.30
2023-12-03T07:01:10.473Z,26.20
2023-12-03T07:04:03.020Z,23.30
2023-12-03T07:06:55.604Z,21.00
2023-12-03T07:09:48.161Z,26.50
2023-12-03T07:12:40.728Z,23.90
2023-12-03T07:15:35.389Z,16.50
2023-12-03T07:18:27.945Z,21.20
2023-12-03T07:21:23.469Z,23.50
2023-12-03T07:24:16.041Z,22.10
2023-12-03T07:27:08.892Z,25.00
2023-12-03T07:30:01.687Z,18.60
2023-12-03T07:32:54.352Z,16.90
2023-12-03T07:35:46.835Z,15.70
2023-12-03T07:38:40.058Z,14.50
2023-12-03T07:41:32.588Z,11.80
2023-12-03T07:44:25.215Z,12.40
2023-12-03T07:47:17.789Z,12.60
2023-12-03T07:50:13.700Z,11.90
2023-12-03T07:53:06.676Z,13.00
2023-12-03T07:55:59.092Z,12.70
2023-12-03T07:58:51.561Z,13.70
2023-12-03T08:01:44.132Z,13.60
2023-12-03T08:04:36.827Z,11.80
2023-12-03T08:07:29.473Z,11.00
2023-12-03T08:10:22.205Z,12.60
2023-12-03T08:13:15.274Z,15.40
2023-12-03T08:16:09.288Z,18.10
2023-12-03T08:19:01.879Z,12.70
2023-12-03T08:21:54.673Z,15.30
2023-12-03T08:24:47.540Z,14.50
2023-12-03T08:27:40.237Z,15.60
2023-12-03T08:30:33.432Z,13.50
2023-12-03T08:33:26.149Z,13.00
2023-12-03T08:36:20.640Z,11.10
2023-12-03T08:39:13.615Z,27.30
2023-12-03T08:42:06.859Z,14.80
2023-12-03T08:44:59.298Z,13.10
2023-12-03T08:47:52.077Z,14.30
2023-12-03T08:50:44.789Z,14.50
2023-12-03T08:53:38.626Z,15.10
2023-12-03T08:56:31.550Z,16.80
2023-12-03T08:59:24.312Z,11.40
2023-12-03T09:02:17.543Z,12.10
2023-12-03T09:05:10.370Z,10.60
2023-12-03T09:08:02.914Z,13.30
2023-12-03T09:10:55.492Z,14.20
2023-12-03T09:13:48.356Z,13.50
2023-12-03T09:16:40.948Z,13.60
2023-12-03T09:19:33.515Z,10.90
2023-12-03T09:22:26.152Z,9.70
2023-12-03T09:25:18.728Z,11.90
2023-12-03T09:28:12.065Z,13.30
2023-12-03T09:31:04.848Z,12.40
2023-12-03T09:33:59.450Z,9.00
2023-12-03T09:36:52.121Z,8.20
2023-12-03T09:39:45.902Z,10.40
2023-12-03T09:42:40.500Z,14.10
2023-12-03T09:45:33.182Z,10.90
2023-12-03T09:48:25.833Z,11.70
2023-12-03T09:51:18.797Z,10.50
2023-12-03T09:54:11.712Z,12.20
2023-12-03T09:57:04.616Z,12.40
2023-12-03T10:00:00.183Z,11.90
2023-12-03T10:02:53.423Z,11.40
2023-12-03T10:05:46.041Z,11.40
2023-12-03T10:08:39.640Z,9.80
2023-12-03T10:11:34.084Z,7.50
2023-12-03T10:14:27.143Z,8.30
2023-12-03T10:17:22.179Z,11.00
2023-12-03T10:20:34.284Z,10.30
2023-12-03T10:23:27.864Z,10.20
2023-12-03T10:26:20.465Z,7.60
2023-12-03T10:29:14.012Z,10.90
2023-12-03T10:32:07.602Z,10.90
2023-12-03T10:35:01.338Z,11.00
2023-12-03T10:37:53.967Z,11.00
2023-12-03T10:40:46.705Z,9.90
2023-12-03T10:43:39.950Z,10.50
2023-12-03T10:46:32.385Z,11.30
2023-12-03T10:49:25.701Z,10.40
2023-12-03T10:52:18.440Z,12.30
2023-12-03T10:55:12.121Z,10.60
2023-12-03T10:58:06.713Z,11.40
2023-12-03T11:01:02.759Z,11.50
2023-12-03T11:04:00.451Z,11.10
2023-12-03T11:06:55.097Z,11.50
2023-12-03T11:09:52.550Z,10.40
2023-12-03T11:12:47.303Z,11.50
2023-12-03T11:15:39.940Z,9.80
2023-12-03T11:18:34.954Z,7.70
2023-12-03T11:21:34.367Z,9.80
2023-12-03T11:24:45.262Z,8.70
2023-12-03T11:27:37.796Z,9.30
2023-12-03T11:30:41.061Z,14.30
2023-12-03T11:33:35.605Z,13.90
2023-12-03T11:36:38.640Z,13.30
2023-12-03T11:39:31.186Z,9.50
2023-12-03T11:42:26.273Z,32.60
2023-12-03T11:45:24.120Z,24.60
2023-12-03T11:48:17.113Z,14.20
2023-12-03T11:51:10.894Z,9.30
2023-12-03T11:54:05.005Z,10.00
2023-12-03T11:56:57.522Z,9.90
2023-12-03T11:59:50.285Z,8.00
2023-12-03T12:02:42.812Z,10.90
2023-12-03T12:05:44.161Z,9.80
2023-12-03T12:08:36.701Z,11.20
2023-12-03T12:11:29.180Z,9.20
2023-12-03T12:14:22.395Z,8.50
2023-12-03T12:17:16.131Z,10.00
2023-12-03T12:20:19.476Z,8.40
2023-12-03T12:23:14.942Z,8.60
2023-12-03T12:26:08.724Z,8.40
2023-12-03T12:29:01.210Z,9.80
2023-12-03T12:31:53.741Z,8.90
2023-12-03T12:34:47.420Z,8.60
2023-12-03T12:37:43.379Z,8.70
2023-12-03T12:40:39.243Z,9.00
2023-12-03T12:43:32.058Z,7.80
2023-12-03T12:46:24.781Z,12.60
2023-12-03T12:49:17.618Z,14.80
2023-12-03T12:52:13.799Z,9.80
2023-12-03T12:55:11.463Z,9.40
2023-12-03T12:58:11.486Z,8.20
2023-12-03T13:01:04.012Z,10.80
2023-12-03T13:03:56.542Z,10.70
2023-12-03T13:06:49.255Z,10.50
2023-12-03T13:09:41.736Z,9.10
2023-12-03T13:12:34.338Z,10.00
2023-12-03T13:15:27.989Z,12.30
2023-12-03T13:18:25.496Z,10.90
2023-12-03T13:21:19.675Z,9.40
2023-12-03T13:24:19.514Z,9.50
2023-12-03T13:27:19.062Z,9.10
2023-12-03T13:30:12.583Z,12.00
2023-12-03T13:33:06.848Z,9.20
2023-12-03T13:35:59.469Z,10.20
2023-12-03T13:38:53.642Z,11.40
2023-12-03T13:41:46.102Z,8.50
2023-12-03T13:44:38.729Z,9.00
2023-12-03T13:47:31.184Z,9.60
2023-12-03T13:50:24.585Z,9.50
2023-12-03T13:53:17.968Z,10.00
2023-12-03T13:56:13.123Z,9.90
2023-12-03T13:59:05.644Z,10.30
2023-12-03T14:01:58.218Z,11.30
2023-12-03T14:07:44.690Z,10.80
2023-12-03T14:10:37.157Z,8.80
2023-12-03T14:13:29.612Z,9.30
2023-12-03T14:16:25.154Z,11.10
2023-12-03T14:19:18.055Z,11.40
2023-12-03T14:22:10.632Z,11.20
2023-12-03T14:25:03.194Z,12.40
2023-12-03T14:27:56.328Z,11.60
2023-12-03T14:30:48.884Z,11.20
2023-12-03T14:33:41.610Z,11.00
2023-12-03T14:36:34.993Z,12.80
2023-12-03T14:39:28.250Z,11.80
2023-12-03T14:42:22.403Z,12.20
2023-12-03T14:45:16.108Z,12.40
2023-12-03T14:48:08.934Z,11.90
2023-12-03T14:51:01.500Z,10.20
2023-12-03T14:53:53.972Z,11.30
2023-12-03T14:56:46.803Z,11.50
2023-12-03T14:59:40.105Z,12.20
2023-12-03T15:02:32.628Z,12.30
2023-12-03T15:05:25.559Z,13.70
2023-12-03T15:08:18.311Z,14.00
2023-12-03T15:11:10.810Z,14.00
2023-12-03T15:14:03.290Z,14.70
2023-12-03T15:16:55.761Z,14.00
2023-12-03T15:19:48.296Z,13.50
2023-12-03T15:22:40.880Z,14.30
2023-12-03T15:25:34.048Z,14.80
2023-12-03T15:28:27.011Z,13.90
2023-12-03T15:31:19.987Z,14.20
2023-12-03T15:34:12.971Z,15.20
2023-12-03T15:37:05.934Z,15.30
2023-12-03T15:39:58.741Z,15.40
2023-12-03T15:42:55.330Z,16.10
2023-12-03T15:45:47.958Z,18.70
2023-12-03T15:48:40.606Z,17.90
2023-12-03T15:51:33.447Z,19.00
2023-12-03T15:54:26.928Z,18.20
2023-12-03T15:57:20.028Z,19.40
2023-12-03T16:00:14.016Z,20.20
2023-12-03T16:03:07.528Z,19.00
2023-12-03T16:06:00.075Z,19.10
2023-12-03T16:08:52.675Z,19.10
2023-12-03T16:11:47.275Z,20.00
2023-12-03T16:14:39.760Z,20.40
2023-12-03T16:17:35.265Z,23.30
2023-12-03T16:20:29.661Z,47.90
2023-12-03T16:23:22.428Z,31.20
2023-12-03T16:26:15.083Z,29.60
2023-12-03T16:29:07.565Z,22.50
2023-12-03T16:32:02.489Z,22.70
2023-12-03T16:34:57.024Z,22.60
2023-12-03T16:37:50.680Z,23.00
2023-12-03T16:40:45.392Z,22.30
2023-12-03T16:43:39.430Z,23.00
2023-12-03T16:46:32.121Z,23.40
2023-12-03T16:49:24.745Z,21.40
2023-12-03T16:52:18.223Z,25.00
2023-12-03T16:55:11.536Z,26.40
2023-12-03T16:58:03.280Z,26.70
2023-12-03T17:00:55.912Z,26.00
2023-12-03T17:03:48.722Z,24.80
2023-12-03T17:06:41.515Z,24.40
2023-12-03T17:09:34.133Z,27.20
2023-12-03T17:12:26.786Z,27.30
2023-12-03T17:15:19.788Z,25.80
2023-12-03T17:18:12.285Z,24.70
2023-12-03T17:21:05.374Z,21.90
2023-12-03T17:23:59.511Z,21.40
2023-12-03T17:26:51.958Z,22.00
2023-12-03T17:29:44.489Z,21.80
2023-12-03T17:32:37.159Z,22.10
2023-12-03T17:35:29.824Z,22.10
2023-12-03T17:38:22.799Z,23.00
2023-12-03T17:41:15.224Z,24.10
2023-12-03T17:44:07.761Z,30.00
2023-12-03T17:47:03.619Z,37.60
2023-12-03T17:49:56.137Z,38.60
2023-12-03T17:52:48.734Z,33.70
2023-12-03T17:55:41.443Z,32.90
2023-12-03T17:58:33.986Z,36.40
2023-12-03T18:01:27.121Z,30.90
2023-12-03T18:04:21.517Z,32.20
2023-12-03T18:07:14.367Z,24.60
2023-12-03T18:10:12.356Z,28.00
2023-12-03T18:13:04.835Z,22.20
2023-12-03T18:15:57.436Z,24.00
2023-12-03T18:18:50.185Z,23.80
2023-12-03T18:21:42.790Z,21.00
2023-12-03T18:24:35.514Z,26.40
2023-12-03T18:27:28.058Z,25.40
2023-12-03T18:30:21.877Z,24.20
2023-12-03T18:33:15.744Z,27.40
2023-12-03T18:36:17.826Z,23.80
2023-12-03T18:39:12.420Z,26.40
2023-12-03T18:42:05.329Z,26.40
2023-12-03T18:45:00.990Z,26.70
2023-12-03T18:47:53.879Z,28.00
2023-12-03T18:50:46.606Z,30.60
2023-12-03T18:53:39.077Z,24.80
2023-12-03T18:56:31.554Z,26.40
2023-12-03T18:59:25.768Z,26.60
2023-12-03T19:02:18.316Z,24.80
2023-12-03T19:05:13.097Z,22.90
2023-12-03T19:08:05.939Z,21.60
2023-12-03T19:10:58.519Z,22.80
2023-12-03T19:13:51.501Z,23.00
2023-12-03T19:16:45.641Z,26.50
2023-12-03T19:19:38.708Z,24.50
2023-12-03T19:22:31.960Z,25.10
2023-12-03T19:25:24.549Z,23.00
2023-12-03T19:28:18.639Z,23.70
2023-12-03T19:31:11.343Z,24.50
2023-12-03T19:34:04.157Z,21.30
2023-12-03T19:36:56.848Z,25.20
2023-12-03T19:39:50.546Z,26.30
2023-12-03T19:42:43.039Z,25.10
2023-12-03T19:45:35.581Z,25.80
2023-12-03T19:48:28.965Z,27.10
2023-12-03T19:51:21.879Z,24.30
2023-12-03T19:54:14.497Z,24.40
2023-12-03T19:57:09.184Z,18.90
2023-12-03T20:00:02.940Z,23.80
2023-12-03T20:02:55.539Z,24.20
2023-12-03T20:05:48.799Z,23.20
2023-12-03T20:08:41.437Z,24.90
2023-12-03T20:11:34.178Z,24.10
2023-12-03T20:14:26.712Z,22.60
2023-12-03T20:17:22.011Z,16.50
2023-12-03T20:20:15.455Z,16.20
2023-12-03T20:23:07.966Z,16.10
2023-12-03T20:26:03.386Z,15.50
2023-12-03T20:28:56.469Z,13.70
2023-12-03T20:31:48.977Z,15.10
2023-12-03T20:34:41.639Z,17.00
2023-12-03T20:37:34.142Z,21.30
2023-12-03T20:40:27.663Z,22.70
2023-12-03T20:43:20.214Z,18.30
2023-12-03T20:46:13.216Z,17.90
2023-12-03T20:49:07.359Z,19.40
2023-12-03T20:51:59.983Z,17.20
2023-12-03T20:54:52.840Z,15.20
2023-12-03T20:57:45.503Z,17.20
2023-12-03T21:00:38.453Z,14.40
2023-12-03T21:03:31.323Z,13.80
2023-12-03T21:06:24.626Z,13.20
2023-12-03T21:09:18.477Z,13.50
2023-12-03T21:12:11.813Z,11.60
2023-12-03T21:15:04.681Z,13.30
2023-12-03T21:17:57.590Z,16.10
2023-12-03T21:20:50.310Z,14.40
2023-12-03T21:23:42.906Z,18.10
2023-12-03T21:26:35.872Z,19.00
2023-12-03T21:29:30.465Z,17.40
2023-12-03T21:32:23.981Z,14.00
2023-12-03T21:35:16.833Z,15.20
2023-12-03T21:38:09.738Z,14.20
2023-12-03T21:41:02.503Z,14.00
2023-12-03T21:43:55.114Z,11.70
2023-12-03T21:46:47.692Z,11.00
2023-12-03T21:49:41.922Z,13.20
2023-12-03T21:52:34.574Z,12.60
2023-12-03T21:55:27.108Z,11.00
2023-12-03T21:58:20.121Z,8.80
2023-12-03T22:01:12.664Z,8.50
2023-12-03T22:04:05.830Z,9.00
2023-12-03T22:06:58.490Z,9.10
2023-12-03T22:09:51.716Z,9.60
2023-12-03T22:12:44.289Z,8.70
2023-12-03T22:15:36.910Z,10.20
2023-12-03T22:18:30.431Z,9.70
2023-12-03T22:21:23.240Z,11.00
2023-12-03T22:24:15.872Z,10.10
2023-12-03T22:27:08.719Z,10.10
2023-12-03T22:30:06.463Z,7.30
2023-12-03T22:33:06.628Z,7.80
2023-12-03T22:35:59.156Z,7.90
2023-12-03T22:38:51.643Z,7.70
2023-12-03T22:41:46.331Z,8.10
2023-12-03T22:44:38.859Z,6.50
2023-12-03T22:47:32.729Z,6.60
2023-12-03T22:50:27.612Z,7.70
2023-12-03T22:53:22.471Z,7.80
2023-12-03T22:56:15.107Z,6.50
2023-12-03T22:59:07.592Z,5.90
2023-12-03T23:02:00.458Z,5.60
2023-12-03T23:04:53.882Z,5.30
2023-12-03T23:07:47.286Z,6.80
2023-12-03T23:10:40.605Z,6.80
2023-12-03T23:13:33.172Z,7.50
2023-12-03T23:16:26.443Z,7.40
2023-12-03T23:19:19.091Z,8.30
2023-12-03T23:22:11.696Z,9.30
2023-12-03T23:25:06.534Z,8.80
2023-12-03T23:27:59.041Z,8.60
2023-12-03T23:30:51.623Z,8.00
2023-12-03T23:33:44.564Z,7.10
2023-12-03T23:36:37.231Z,6.30
2023-12-03T23:39:30.161Z,6.60
2023-12-03T23:42:23.383Z,7.40
2023-12-03T23:45:16.196Z,8.50
2023-12-03T23:48:09.136Z,10.70
2023-12-03T23:51:01.809Z,9.10
2023-12-03T23:53:56.382Z,9.80
2023-12-03T23:56:48.847Z,9.60
2023-12-03T23:59:41.349Z,9.40
